createdAt,value
2023-03-27T00:00:48.594Z,5.01
2023-03-27T00:01:48.652Z,4.98
2023-03-27T00:02:48.682Z,4.98
2023-03-27T00:03:48.664Z,5.01
2023-03-27T00:04:48.545Z,5.04
2023-03-27T00:05:48.523Z,5.01
2023-03-27T00:06:48.501Z,4.98
2023-03-27T00:07:48.503Z,4.97
2023-03-27T00:08:48.472Z,4.94
2023-03-27T00:09:48.486Z,4.86
2023-03-27T00:10:48.458Z,4.76
2023-03-27T00:11:48.442Z,4.70
2023-03-27T00:12:48.422Z,4.63
2023-03-27T00:13:50.259Z,4.61
2023-03-27T00:14:48.411Z,4.61
2023-03-27T00:15:48.383Z,4.67
2023-03-27T00:16:48.393Z,4.71
2023-03-27T00:17:48.395Z,4.79
2023-03-27T00:18:48.342Z,4.75
2023-03-27T00:19:48.354Z,4.68
2023-03-27T00:20:48.322Z,4.66
2023-03-27T00:21:48.303Z,4.67
2023-03-27T00:22:48.292Z,4.63
2023-03-27T00:23:48.272Z,4.58
2023-03-27T00:24:48.277Z,4.50
2023-03-27T00:25:48.261Z,4.43
2023-03-27T00:26:48.229Z,4.46
2023-03-27T00:27:48.223Z,4.45
2023-03-27T00:28:48.198Z,4.45
2023-03-27T00:29:48.209Z,4.38
2023-03-27T00:30:48.281Z,4.38
2023-03-27T00:31:48.171Z,4.36
2023-03-27T00:32:48.188Z,4.39
2023-03-27T00:33:48.146Z,4.32
2023-03-27T00:34:48.146Z,4.30
2023-03-27T00:35:48.141Z,4.25
2023-03-27T00:36:48.097Z,4.20
2023-03-27T00:37:48.093Z,4.20
2023-03-27T00:38:48.069Z,4.16
2023-03-27T00:39:48.116Z,4.12
2023-03-27T00:40:48.077Z,4.12
2023-03-27T00:41:48.046Z,4.09
2023-03-27T00:42:48.021Z,4.04
2023-03-27T00:43:48.011Z,4.00
2023-03-27T00:44:48.018Z,4.04
2023-03-27T00:45:47.982Z,4.04
2023-03-27T00:46:48.001Z,3.99
2023-03-27T00:47:47.988Z,3.96
2023-03-27T00:48:47.956Z,3.96
2023-03-27T00:49:47.954Z,4.00
2023-03-27T00:50:47.923Z,3.96
2023-03-27T00:51:47.898Z,3.92
2023-03-27T00:52:47.925Z,3.95
2023-03-27T00:53:47.877Z,3.95
2023-03-27T00:54:47.882Z,3.94
2023-03-27T00:55:47.855Z,3.91
2023-03-27T00:56:47.835Z,3.92
2023-03-27T00:57:47.826Z,3.95
2023-03-27T00:58:47.815Z,3.96
2023-03-27T00:59:47.821Z,3.96
2023-03-27T01:00:47.791Z,3.96
2023-03-27T01:01:47.853Z,3.99
2023-03-27T01:02:47.876Z,3.94
2023-03-27T01:03:47.867Z,3.96
2023-03-27T01:04:47.746Z,3.91
2023-03-27T01:05:47.718Z,3.89
2023-03-27T01:06:47.698Z,3.88
2023-03-27T01:08:00.628Z,3.89
2023-03-27T01:08:48.664Z,3.94
2023-03-27T01:09:47.686Z,3.95
2023-03-27T01:10:47.677Z,3.95
2023-03-27T01:11:47.647Z,4.00
2023-03-27T01:12:47.624Z,3.99
2023-03-27T01:13:47.620Z,3.91
2023-03-27T01:14:47.604Z,3.92
2023-03-27T01:15:47.602Z,3.92
2023-03-27T01:16:47.571Z,3.92
2023-03-27T01:17:47.581Z,3.99
2023-03-27T01:18:47.548Z,4.00
2023-03-27T01:19:47.548Z,4.00
2023-03-27T01:20:47.518Z,4.03
2023-03-27T01:21:47.505Z,3.99
2023-03-27T01:22:47.486Z,3.99
2023-03-27T01:24:00.217Z,3.92
2023-03-27T01:24:48.492Z,3.86
2023-03-27T01:25:47.445Z,3.84
2023-03-27T01:26:47.475Z,3.82
2023-03-27T01:27:47.479Z,3.82
2023-03-27T01:28:47.429Z,3.85
2023-03-27T01:29:47.408Z,3.86
2023-03-27T01:30:47.384Z,3.86
2023-03-27T01:31:47.424Z,3.91
2023-03-27T01:32:47.384Z,3.92
2023-03-27T01:33:47.336Z,3.91
2023-03-27T01:34:47.334Z,3.94
2023-03-27T01:35:48.370Z,3.94
2023-03-27T01:36:47.295Z,3.99
2023-03-27T01:37:47.318Z,4.03
2023-03-27T01:38:47.267Z,4.03
2023-03-27T01:39:47.279Z,3.96
2023-03-27T01:40:47.257Z,3.92
2023-03-27T01:41:47.241Z,3.89
2023-03-27T01:42:47.245Z,3.85
2023-03-27T01:43:47.266Z,3.84
2023-03-27T01:44:47.198Z,3.86
2023-03-27T01:45:47.220Z,3.89
2023-03-27T01:46:47.244Z,3.89
2023-03-27T01:47:47.178Z,3.88
2023-03-27T01:48:47.137Z,3.91
2023-03-27T01:49:47.164Z,3.89
2023-03-27T01:50:47.146Z,3.86
2023-03-27T01:51:47.106Z,3.85
2023-03-27T01:52:47.113Z,3.85
2023-03-27T01:53:47.106Z,3.91
2023-03-27T01:54:47.089Z,3.91
2023-03-27T01:55:47.131Z,3.86
2023-03-27T01:56:47.062Z,3.82
2023-03-27T01:57:49.346Z,3.85
2023-03-27T01:58:47.006Z,3.82
2023-03-27T01:59:47.005Z,3.81
2023-03-27T02:00:52.901Z,3.81
2023-03-27T02:01:48.029Z,3.78
2023-03-27T02:02:46.984Z,3.78
2023-03-27T02:03:46.936Z,3.84
2023-03-27T02:04:47.085Z,3.77
2023-03-27T02:05:46.941Z,3.81
2023-03-27T02:06:46.898Z,3.88
2023-03-27T02:07:46.893Z,3.82
2023-03-27T02:08:46.866Z,3.81
2023-03-27T02:09:46.865Z,3.81
2023-03-27T02:10:46.874Z,3.85
2023-03-27T02:11:46.842Z,3.86
2023-03-27T02:12:46.823Z,3.89
2023-03-27T02:13:46.820Z,3.85
2023-03-27T02:14:46.791Z,3.85
2023-03-27T02:15:46.800Z,3.86
2023-03-27T02:16:46.801Z,3.92
2023-03-27T02:17:46.780Z,3.94
2023-03-27T02:18:46.742Z,4.02
2023-03-27T02:19:46.733Z,4.00
2023-03-27T02:20:46.743Z,4.00
2023-03-27T02:21:46.704Z,4.00
2023-03-27T02:22:46.687Z,4.02
2023-03-27T02:23:46.685Z,4.03
2023-03-27T02:24:46.664Z,3.99
2023-03-27T02:25:46.684Z,3.88
2023-03-27T02:26:46.641Z,3.88
2023-03-27T02:27:46.636Z,3.88
2023-03-27T02:28:46.606Z,3.91
2023-03-27T02:29:46.607Z,3.89
2023-03-27T02:30:46.609Z,3.85
2023-03-27T02:31:47.626Z,3.81
2023-03-27T02:32:46.630Z,3.81
2023-03-27T02:33:46.554Z,3.81
2023-03-27T02:34:46.528Z,3.82
2023-03-27T02:35:46.587Z,3.78
2023-03-27T02:36:46.515Z,3.81
2023-03-27T02:37:46.493Z,3.78
2023-03-27T02:38:46.482Z,3.77
2023-03-27T02:39:46.476Z,3.76
2023-03-27T02:40:46.461Z,3.68
2023-03-27T02:41:46.453Z,3.68
2023-03-27T02:42:46.422Z,3.68
2023-03-27T02:43:46.423Z,3.71
2023-03-27T02:44:47.399Z,3.74
2023-03-27T02:45:46.475Z,3.73
2023-03-27T02:46:46.375Z,3.73
2023-03-27T02:47:46.421Z,3.68
2023-03-27T02:48:46.361Z,3.67
2023-03-27T02:49:46.338Z,3.66
2023-03-27T02:50:46.327Z,3.68
2023-03-27T02:51:46.362Z,3.67
2023-03-27T02:52:46.294Z,3.64
2023-03-27T02:53:46.292Z,3.59
2023-03-27T02:54:46.265Z,3.58
2023-03-27T02:55:46.261Z,3.61
2023-03-27T02:56:46.302Z,3.61
2023-03-27T02:57:51.625Z,3.61
2023-03-27T02:58:47.210Z,3.61
2023-03-27T02:59:46.224Z,3.56
2023-03-27T03:00:46.192Z,3.55
2023-03-27T03:01:46.250Z,3.49
2023-03-27T03:02:46.242Z,3.46
2023-03-27T03:03:46.163Z,3.48
2023-03-27T03:04:46.159Z,3.50
2023-03-27T03:05:46.128Z,3.50
2023-03-27T03:06:46.126Z,3.49
2023-03-27T03:07:46.100Z,3.49
2023-03-27T03:08:46.088Z,3.50
2023-03-27T03:09:46.076Z,3.49
2023-03-27T03:10:46.162Z,3.55
2023-03-27T03:11:46.073Z,3.50
2023-03-27T03:12:46.039Z,3.52
2023-03-27T03:13:46.024Z,3.53
2023-03-27T03:14:46.015Z,3.55
2023-03-27T03:15:46.014Z,3.53
2023-03-27T03:16:46.021Z,3.52
2023-03-27T03:17:46.054Z,3.48
2023-03-27T03:18:45.966Z,3.36
2023-03-27T03:19:45.941Z,3.31
2023-03-27T03:20:45.947Z,3.36
2023-03-27T03:21:45.940Z,3.37
2023-03-27T03:22:45.900Z,3.40
2023-03-27T03:23:57.862Z,3.41
2023-03-27T03:24:46.875Z,3.45
2023-03-27T03:25:45.885Z,3.45
2023-03-27T03:26:45.886Z,3.36
2023-03-27T03:27:45.842Z,3.34
2023-03-27T03:29:01.035Z,3.41
2023-03-27T03:29:46.807Z,3.45
2023-03-27T03:30:45.845Z,3.46
2023-03-27T03:31:45.818Z,3.43
2023-03-27T03:32:45.808Z,3.43
2023-03-27T03:33:45.755Z,3.41
2023-03-27T03:34:45.744Z,3.46
2023-03-27T03:35:45.754Z,3.45
2023-03-27T03:36:45.735Z,3.49
2023-03-27T03:37:45.708Z,3.46
2023-03-27T03:38:45.690Z,3.45
2023-03-27T03:39:45.685Z,3.34
2023-03-27T03:40:45.677Z,3.30
2023-03-27T03:41:45.675Z,3.34
2023-03-27T03:42:45.638Z,3.33
2023-03-27T03:43:45.627Z,3.37
2023-03-27T03:44:45.604Z,3.40
2023-03-27T03:45:45.599Z,3.43
2023-03-27T03:46:45.592Z,3.48
2023-03-27T03:47:45.611Z,3.41
2023-03-27T03:48:45.553Z,3.36
2023-03-27T03:49:45.552Z,3.40
2023-03-27T03:50:45.538Z,3.37
2023-03-27T03:51:45.529Z,3.36
2023-03-27T03:52:45.509Z,3.36
2023-03-27T03:53:45.487Z,3.29
2023-03-27T03:54:46.739Z,3.29
2023-03-27T03:55:45.477Z,3.26
2023-03-27T03:56:45.523Z,3.21
2023-03-27T03:57:45.431Z,3.19
2023-03-27T03:58:45.423Z,3.21
2023-03-27T03:59:45.412Z,3.24
2023-03-27T04:00:45.405Z,3.27
2023-03-27T04:01:45.414Z,3.29
2023-03-27T04:02:45.495Z,3.26
2023-03-27T04:03:45.456Z,3.19
2023-03-27T04:04:46.645Z,3.12
2023-03-27T04:05:45.328Z,3.11
2023-03-27T04:06:45.316Z,3.13
2023-03-27T04:07:45.452Z,3.16
2023-03-27T04:08:45.291Z,3.12
2023-03-27T04:09:45.269Z,3.08
2023-03-27T04:10:45.266Z,3.09
2023-03-27T04:11:45.252Z,3.11
2023-03-27T04:12:45.307Z,3.08
2023-03-27T04:13:45.216Z,3.11
2023-03-27T04:14:45.214Z,3.16
2023-03-27T04:15:45.281Z,3.18
2023-03-27T04:16:45.179Z,3.19
2023-03-27T04:17:45.373Z,3.19
2023-03-27T04:18:45.321Z,3.21
2023-03-27T04:19:45.144Z,3.22
2023-03-27T04:20:45.143Z,3.21
2023-03-27T04:21:45.119Z,3.18
2023-03-27T04:22:45.299Z,3.16
2023-03-27T04:23:45.101Z,3.21
2023-03-27T04:24:45.079Z,3.22
2023-03-27T04:25:45.066Z,3.22
2023-03-27T04:26:45.058Z,3.27
2023-03-27T04:27:45.045Z,3.24
2023-03-27T04:28:45.041Z,3.24
2023-03-27T04:29:45.011Z,3.29
2023-03-27T04:30:45.007Z,3.31
2023-03-27T04:31:45.006Z,3.27
2023-03-27T04:32:45.062Z,3.24
2023-03-27T04:33:44.960Z,3.26
2023-03-27T04:34:44.949Z,3.18
2023-03-27T04:35:44.946Z,3.16
2023-03-27T04:36:45.109Z,3.12
2023-03-27T04:37:44.934Z,3.09
2023-03-27T04:38:44.900Z,3.06
2023-03-27T04:39:44.913Z,3.05
2023-03-27T04:40:44.876Z,3.03
2023-03-27T04:41:44.855Z,3.05
2023-03-27T04:42:44.897Z,3.09
2023-03-27T04:43:44.826Z,3.13
2023-03-27T04:44:44.816Z,3.56
2023-03-27T04:45:44.809Z,4.25
2023-03-27T04:46:44.843Z,4.50
2023-03-27T04:47:44.813Z,4.28
2023-03-27T04:48:44.769Z,4.27
2023-03-27T04:49:44.754Z,4.56
2023-03-27T04:50:44.740Z,4.46
2023-03-27T04:51:44.721Z,4.39
2023-03-27T04:52:44.737Z,4.21
2023-03-27T04:53:44.704Z,3.92
2023-03-27T04:54:44.690Z,3.73
2023-03-27T04:55:44.704Z,3.59
2023-03-27T04:56:44.690Z,3.41
2023-03-27T04:57:44.670Z,3.26
2023-03-27T04:58:44.645Z,3.18
2023-03-27T04:59:44.625Z,3.18
2023-03-27T05:00:44.645Z,3.16
2023-03-27T05:01:44.653Z,3.15
2023-03-27T05:02:44.766Z,3.13
2023-03-27T05:03:44.594Z,3.12
2023-03-27T05:04:44.549Z,3.12
2023-03-27T05:05:44.534Z,3.08
2023-03-27T05:06:44.527Z,3.03
2023-03-27T05:07:44.554Z,3.00
2023-03-27T05:08:44.569Z,2.93
2023-03-27T05:09:44.502Z,2.88
2023-03-27T05:10:44.482Z,2.85
2023-03-27T05:11:44.460Z,2.83
2023-03-27T05:12:44.445Z,2.82
2023-03-27T05:13:44.479Z,2.83
2023-03-27T05:14:44.421Z,2.87
2023-03-27T05:15:44.394Z,2.87
2023-03-27T05:16:44.511Z,2.82
2023-03-27T05:17:44.396Z,2.77
2023-03-27T05:18:44.397Z,2.75
2023-03-27T05:19:44.364Z,2.70
2023-03-27T05:20:44.349Z,2.65
2023-03-27T05:21:44.337Z,2.69
2023-03-27T05:22:44.357Z,2.70
2023-03-27T05:23:44.319Z,2.75
2023-03-27T05:24:44.290Z,2.73
2023-03-27T05:25:44.367Z,2.75
2023-03-27T05:26:44.250Z,2.72
2023-03-27T05:27:44.524Z,2.69
2023-03-27T05:28:44.250Z,2.70
2023-03-27T05:29:46.369Z,2.72
2023-03-27T05:30:44.300Z,2.72
2023-03-27T05:31:44.199Z,2.70
2023-03-27T05:32:44.243Z,2.70
2023-03-27T05:33:44.290Z,2.70
2023-03-27T05:34:44.163Z,2.62
2023-03-27T05:35:44.170Z,2.68
2023-03-27T05:36:44.129Z,2.68
2023-03-27T05:37:44.123Z,2.69
2023-03-27T05:38:44.117Z,2.69
2023-03-27T05:39:44.094Z,2.65
2023-03-27T05:40:44.110Z,2.70
2023-03-27T05:41:44.073Z,2.73
2023-03-27T05:42:44.072Z,2.77
2023-03-27T05:43:44.062Z,2.80
2023-03-27T05:44:44.037Z,2.80
2023-03-27T05:45:44.041Z,2.80
2023-03-27T05:46:44.083Z,2.83
2023-03-27T05:47:44.027Z,2.85
2023-03-27T05:48:43.975Z,2.80
2023-03-27T05:49:43.950Z,2.82
2023-03-27T05:50:43.955Z,2.80
2023-03-27T05:51:47.310Z,2.79
2023-03-27T05:52:43.911Z,2.79
2023-03-27T05:53:43.908Z,2.77
2023-03-27T05:54:43.868Z,2.77
2023-03-27T05:55:43.874Z,2.75
2023-03-27T05:56:43.874Z,2.76
2023-03-27T05:57:43.858Z,2.76
2023-03-27T05:58:43.842Z,2.73
2023-03-27T05:59:43.834Z,2.76
2023-03-27T06:00:43.834Z,2.76
2023-03-27T06:01:43.800Z,2.79
2023-03-27T06:02:43.984Z,2.83
2023-03-27T06:03:43.892Z,2.83
2023-03-27T06:04:43.804Z,2.83
2023-03-27T06:05:43.746Z,2.83
2023-03-27T06:06:43.750Z,2.85
2023-03-27T06:07:43.920Z,2.88
2023-03-27T06:08:43.736Z,2.91
2023-03-27T06:09:43.711Z,2.93
2023-03-27T06:10:43.705Z,2.94
2023-03-27T06:11:43.669Z,2.94
2023-03-27T06:12:43.653Z,2.98
2023-03-27T06:13:43.671Z,3.00
2023-03-27T06:14:43.648Z,3.03
2023-03-27T06:15:43.689Z,3.05
2023-03-27T06:16:43.618Z,3.00
2023-03-27T06:17:43.628Z,3.03
2023-03-27T06:18:43.586Z,2.98
2023-03-27T06:19:43.716Z,3.00
2023-03-27T06:20:43.561Z,2.94
2023-03-27T06:21:43.608Z,2.93
2023-03-27T06:22:43.530Z,2.93
2023-03-27T06:23:43.517Z,2.91
2023-03-27T06:24:43.512Z,2.94
2023-03-27T06:25:43.487Z,2.98
2023-03-27T06:26:43.481Z,3.05
2023-03-27T06:27:43.458Z,3.03
2023-03-27T06:28:43.525Z,3.08
2023-03-27T06:29:43.446Z,3.11
2023-03-27T06:30:43.434Z,3.13
2023-03-27T06:31:43.552Z,3.16
2023-03-27T06:32:43.601Z,3.16
2023-03-27T06:33:43.391Z,3.16
2023-03-27T06:34:43.417Z,3.16
2023-03-27T06:35:43.459Z,3.22
2023-03-27T06:36:44.350Z,3.31
2023-03-27T06:37:43.415Z,3.41
2023-03-27T06:38:43.327Z,3.48
2023-03-27T06:39:43.324Z,3.52
2023-03-27T06:40:43.298Z,3.55
2023-03-27T06:41:43.342Z,3.58
2023-03-27T06:42:43.474Z,3.66
2023-03-27T06:43:43.267Z,3.70
2023-03-27T06:44:43.334Z,3.67
2023-03-27T06:45:43.237Z,3.58
2023-03-27T06:46:45.803Z,3.56
2023-03-27T06:47:53.828Z,3.59
2023-03-27T06:48:44.298Z,3.61
2023-03-27T06:49:43.194Z,3.66
2023-03-27T06:50:43.369Z,3.67
2023-03-27T06:51:43.157Z,3.67
2023-03-27T06:52:43.168Z,3.73
2023-03-27T06:53:43.131Z,3.81
2023-03-27T06:54:43.152Z,3.82
2023-03-27T06:55:43.096Z,3.84
2023-03-27T06:56:43.128Z,3.86
2023-03-27T06:57:43.101Z,3.92
2023-03-27T06:58:43.109Z,3.96
2023-03-27T06:59:43.117Z,4.03
2023-03-27T07:00:43.060Z,4.04
2023-03-27T07:01:43.096Z,4.03
2023-03-27T07:02:43.030Z,4.10
2023-03-27T07:03:42.999Z,4.14
2023-03-27T07:04:51.099Z,4.20
2023-03-27T07:05:44.051Z,4.21
2023-03-27T07:06:42.952Z,4.25
2023-03-27T07:07:42.971Z,4.30
2023-03-27T07:08:42.969Z,4.34
2023-03-27T07:09:42.944Z,4.38
2023-03-27T07:10:42.945Z,4.34
2023-03-27T07:11:42.933Z,4.34
2023-03-27T07:12:42.878Z,4.28
2023-03-27T07:13:42.874Z,4.27
2023-03-27T07:14:42.864Z,4.28
2023-03-27T07:15:42.824Z,4.27
2023-03-27T07:16:42.877Z,4.27
2023-03-27T07:17:48.725Z,4.30
2023-03-27T07:18:43.785Z,4.31
2023-03-27T07:19:42.784Z,4.32
2023-03-27T07:20:42.790Z,4.36
2023-03-27T07:21:42.748Z,4.36
2023-03-27T07:22:42.807Z,4.36
2023-03-27T07:23:42.727Z,4.38
2023-03-27T07:24:42.736Z,4.40
2023-03-27T07:25:42.974Z,4.43
2023-03-27T07:26:42.691Z,4.40
2023-03-27T07:27:42.669Z,4.43
2023-03-27T07:28:42.669Z,4.46
2023-03-27T07:29:42.659Z,4.48
2023-03-27T07:30:42.645Z,4.50
2023-03-27T07:32:43.784Z,4.56
2023-03-27T07:33:42.736Z,4.58
2023-03-27T07:34:42.719Z,4.67
2023-03-27T07:35:42.643Z,4.71
2023-03-27T07:36:42.548Z,4.78
2023-03-27T07:37:42.534Z,4.86
2023-03-27T07:38:42.522Z,4.90
2023-03-27T07:39:42.524Z,5.00
2023-03-27T07:40:42.498Z,5.07
2023-03-27T07:41:42.504Z,5.12
2023-03-27T07:42:42.476Z,5.02
2023-03-27T07:43:42.481Z,5.02
2023-03-27T07:44:42.473Z,4.98
2023-03-27T07:45:42.464Z,4.98
2023-03-27T07:46:42.432Z,4.92
2023-03-27T07:47:42.419Z,4.79
2023-03-27T07:48:42.396Z,4.74
2023-03-27T07:49:42.401Z,4.70
2023-03-27T07:50:42.374Z,4.70
2023-03-27T07:51:42.359Z,4.70
2023-03-27T07:52:42.362Z,4.70
2023-03-27T07:53:42.475Z,4.68
2023-03-27T07:54:42.335Z,4.68
2023-03-27T07:55:42.328Z,4.70
2023-03-27T07:56:42.403Z,4.70
2023-03-27T07:57:57.248Z,4.67
2023-03-27T07:58:43.341Z,4.67
2023-03-27T07:59:42.265Z,4.71
2023-03-27T08:00:42.237Z,4.82
2023-03-27T08:01:42.223Z,4.90
2023-03-27T08:02:42.263Z,4.95
2023-03-27T08:03:42.526Z,5.05
2023-03-27T08:04:42.283Z,5.15
2023-03-27T08:05:42.192Z,5.16
2023-03-27T08:06:42.153Z,5.15
2023-03-27T08:07:42.139Z,5.13
2023-03-27T08:08:42.126Z,5.00
2023-03-27T08:09:42.114Z,4.98
2023-03-27T08:10:42.119Z,5.01
2023-03-27T08:11:42.089Z,5.07
2023-03-27T08:12:42.070Z,5.15
2023-03-27T08:13:42.068Z,5.23
2023-03-27T08:14:42.079Z,5.28
2023-03-27T08:15:42.052Z,5.33
2023-03-27T08:16:42.069Z,5.43
2023-03-27T08:17:42.094Z,5.54
2023-03-27T08:18:42.003Z,5.59
2023-03-27T08:19:41.980Z,5.54
2023-03-27T08:20:42.011Z,5.47
2023-03-27T08:21:41.954Z,5.36
2023-03-27T08:22:41.953Z,5.36
2023-03-27T08:23:41.944Z,5.34
2023-03-27T08:24:41.921Z,5.37
2023-03-27T08:25:42.040Z,5.40
2023-03-27T08:26:45.937Z,5.43
2023-03-27T08:27:42.975Z,5.43
2023-03-27T08:28:43.321Z,5.43
2023-03-27T08:29:42.146Z,5.41
2023-03-27T08:30:42.687Z,5.29
2023-03-27T08:31:42.124Z,5.23
2023-03-27T08:32:42.968Z,5.25
2023-03-27T08:33:42.119Z,5.22
2023-03-27T08:34:42.479Z,5.20
2023-03-27T08:35:42.303Z,5.19
2023-03-27T08:36:42.678Z,5.26
2023-03-27T08:37:42.065Z,5.28
2023-03-27T08:38:42.528Z,5.25
2023-03-27T08:39:42.159Z,5.15
2023-03-27T08:40:42.683Z,5.07
2023-03-27T08:41:42.897Z,5.01
2023-03-27T08:42:44.191Z,5.00
2023-03-27T08:43:42.974Z,4.98
2023-03-27T08:44:42.184Z,5.02
2023-03-27T08:45:42.402Z,5.04
2023-03-27T08:46:42.312Z,5.00
2023-03-27T08:47:43.318Z,4.97
2023-03-27T08:48:41.599Z,5.02
2023-03-27T08:49:41.590Z,5.12
2023-03-27T08:50:41.584Z,5.23
2023-03-27T08:51:41.551Z,5.33
2023-03-27T08:52:41.547Z,5.36
2023-03-27T08:53:41.555Z,5.40
2023-03-27T08:54:41.519Z,5.46
2023-03-27T08:55:41.632Z,5.56
2023-03-27T08:56:41.527Z,5.64
2023-03-27T08:57:41.479Z,5.67
2023-03-27T08:58:41.467Z,5.72
2023-03-27T08:59:41.451Z,5.74
2023-03-27T09:00:41.450Z,5.94
2023-03-27T09:01:41.534Z,6.06
2023-03-27T09:02:41.509Z,6.09
2023-03-27T09:03:41.479Z,6.38
2023-03-27T09:04:41.381Z,6.50
2023-03-27T09:05:41.377Z,6.57
2023-03-27T09:06:41.353Z,6.47
2023-03-27T09:07:41.341Z,6.46
2023-03-27T09:08:41.319Z,6.50
2023-03-27T09:09:41.321Z,6.49
2023-03-27T09:10:41.328Z,6.38
2023-03-27T09:11:41.289Z,6.28
2023-03-27T09:12:42.044Z,6.07
2023-03-27T09:13:41.263Z,6.05
2023-03-27T09:14:41.241Z,5.95
2023-03-27T09:15:41.265Z,5.97
2023-03-27T09:16:41.251Z,5.92
2023-03-27T09:17:41.244Z,5.97
2023-03-27T09:18:41.221Z,5.94
2023-03-27T09:19:41.182Z,5.97
2023-03-27T09:20:41.202Z,5.90
2023-03-27T09:21:41.155Z,5.97
2023-03-27T09:22:41.173Z,6.12
2023-03-27T09:23:41.123Z,6.32
2023-03-27T09:24:41.137Z,6.35
2023-03-27T09:25:41.132Z,6.35
2023-03-27T09:26:41.092Z,6.43
2023-03-27T09:27:41.078Z,6.50
2023-03-27T09:28:41.072Z,6.39
2023-03-27T09:29:41.075Z,6.26
2023-03-27T09:30:41.065Z,6.26
2023-03-27T09:31:41.077Z,6.35
2023-03-27T09:32:41.052Z,6.32
2023-03-27T09:33:41.021Z,6.29
2023-03-27T09:34:40.981Z,6.17
2023-03-27T09:35:41.193Z,6.19
2023-03-27T09:36:40.982Z,6.28
2023-03-27T09:37:40.940Z,6.35
2023-03-27T09:38:40.935Z,6.43
2023-03-27T09:39:40.949Z,6.50
2023-03-27T09:40:40.923Z,6.59
2023-03-27T09:41:40.902Z,6.64
2023-03-27T09:42:40.959Z,6.67
2023-03-27T09:43:40.879Z,6.60
2023-03-27T09:44:40.852Z,6.49
2023-03-27T09:45:40.884Z,6.39
2023-03-27T09:46:40.953Z,6.32
2023-03-27T09:47:40.911Z,6.28
2023-03-27T09:48:40.800Z,6.22
2023-03-27T09:49:40.805Z,6.20
2023-03-27T09:50:40.773Z,6.19
2023-03-27T09:51:40.785Z,6.16
2023-03-27T09:52:40.754Z,6.16
2023-03-27T09:53:40.747Z,6.32
2023-03-27T09:54:40.726Z,6.39
2023-03-27T09:55:40.714Z,6.46
2023-03-27T09:56:40.733Z,6.46
2023-03-27T09:57:40.684Z,6.43
2023-03-27T09:58:40.794Z,6.52
2023-03-27T09:59:40.651Z,6.59
2023-03-27T10:00:40.682Z,6.67
2023-03-27T10:01:40.651Z,6.70
2023-03-27T10:02:40.665Z,6.60
2023-03-27T10:03:40.688Z,6.47
2023-03-27T10:04:40.583Z,6.41
2023-03-27T10:05:40.583Z,6.39
2023-03-27T10:06:40.592Z,6.47
2023-03-27T10:07:40.572Z,6.52
2023-03-27T10:08:40.549Z,6.43
2023-03-27T10:09:40.605Z,6.35
2023-03-27T10:10:40.533Z,6.43
2023-03-27T10:11:40.526Z,6.54
2023-03-27T10:12:40.501Z,6.56
2023-03-27T10:13:40.477Z,6.53
2023-03-27T10:14:40.455Z,6.53
2023-03-27T10:15:40.470Z,6.59
2023-03-27T10:16:40.517Z,6.49
2023-03-27T10:17:40.549Z,6.44
2023-03-27T10:18:40.415Z,6.46
2023-03-27T10:19:40.402Z,6.43
2023-03-27T10:20:40.384Z,6.39
2023-03-27T10:21:40.386Z,6.49
2023-03-27T10:22:40.357Z,6.65
2023-03-27T10:23:40.407Z,6.70
2023-03-27T10:24:44.388Z,6.75
2023-03-27T10:25:41.331Z,6.89
2023-03-27T10:26:40.327Z,7.04
2023-03-27T10:27:40.293Z,7.21
2023-03-27T10:28:40.318Z,7.29
2023-03-27T10:29:41.254Z,7.36
2023-03-27T10:30:40.255Z,7.32
2023-03-27T10:31:40.307Z,7.10
2023-03-27T10:32:40.339Z,7.03
2023-03-27T10:33:40.214Z,6.97
2023-03-27T10:34:40.212Z,6.97
2023-03-27T10:35:40.239Z,6.97
2023-03-27T10:36:40.178Z,6.93
2023-03-27T10:37:40.174Z,6.92
2023-03-27T10:38:40.142Z,6.95
2023-03-27T10:39:40.144Z,7.00
2023-03-27T10:40:40.110Z,6.92
2023-03-27T10:41:40.190Z,6.82
2023-03-27T10:42:40.090Z,6.85
2023-03-27T10:43:40.108Z,6.96
2023-03-27T10:44:40.059Z,6.93
2023-03-27T10:45:40.117Z,6.86
2023-03-27T10:46:40.050Z,6.92
2023-03-27T10:47:40.083Z,6.97
2023-03-27T10:48:40.015Z,7.00
2023-03-27T10:49:40.009Z,6.97
2023-03-27T10:50:39.998Z,7.07
2023-03-27T10:51:46.608Z,7.08
2023-03-27T10:52:41.013Z,7.08
2023-03-27T10:53:40.064Z,7.04
2023-03-27T10:54:40.038Z,7.13
2023-03-27T10:55:39.889Z,7.08
2023-03-27T10:56:39.971Z,6.95
2023-03-27T10:57:39.926Z,6.87
2023-03-27T10:58:39.882Z,6.86
2023-03-27T10:59:42.123Z,6.89
2023-03-27T11:00:39.860Z,6.92
2023-03-27T11:01:39.931Z,6.92
2023-03-27T11:02:39.882Z,7.03
2023-03-27T11:03:39.855Z,7.15
2023-03-27T11:04:39.852Z,7.26
2023-03-27T11:05:39.788Z,7.41
2023-03-27T11:06:39.768Z,7.50
2023-03-27T11:07:39.825Z,7.64
2023-03-27T11:08:39.738Z,7.51
2023-03-27T11:09:39.742Z,7.48
2023-03-27T11:10:39.721Z,7.50
2023-03-27T11:11:39.718Z,7.43
2023-03-27T11:12:39.710Z,7.50
2023-03-27T11:13:39.688Z,7.61
2023-03-27T11:14:39.668Z,7.69
2023-03-27T11:15:39.654Z,7.78
2023-03-27T11:16:39.715Z,7.87
2023-03-27T11:17:39.684Z,7.88
2023-03-27T11:18:39.632Z,7.64
2023-03-27T11:19:39.610Z,7.37
2023-03-27T11:20:39.585Z,7.13
2023-03-27T11:21:39.571Z,6.82
2023-03-27T11:22:39.590Z,6.62
2023-03-27T11:23:39.557Z,6.56
2023-03-27T11:24:39.515Z,6.46
2023-03-27T11:25:39.539Z,6.47
2023-03-27T11:26:39.513Z,6.46
2023-03-27T11:27:39.537Z,6.43
2023-03-27T11:28:39.557Z,6.44
2023-03-27T11:29:39.485Z,6.36
2023-03-27T11:30:39.528Z,6.46
2023-03-27T11:31:39.593Z,6.68
2023-03-27T11:32:39.512Z,6.83
2023-03-27T11:33:39.423Z,6.86
2023-03-27T11:34:39.425Z,7.03
2023-03-27T11:35:39.405Z,7.21
2023-03-27T11:36:39.376Z,7.33
2023-03-27T11:37:39.394Z,7.43
2023-03-27T11:38:39.354Z,7.59
2023-03-27T11:39:39.359Z,7.53
2023-03-27T11:40:39.334Z,7.39
2023-03-27T11:41:39.314Z,7.39
2023-03-27T11:42:39.300Z,7.33
2023-03-27T11:43:39.304Z,7.32
2023-03-27T11:44:39.271Z,7.33
2023-03-27T11:45:39.264Z,7.29
2023-03-27T11:46:39.265Z,7.31
2023-03-27T11:47:39.319Z,7.28
2023-03-27T11:48:39.249Z,7.32
2023-03-27T11:49:39.217Z,7.33
2023-03-27T11:50:39.230Z,7.36
2023-03-27T11:51:39.200Z,7.33
2023-03-27T11:52:39.174Z,7.29
2023-03-27T11:53:39.205Z,7.21
2023-03-27T11:54:39.150Z,7.36
2023-03-27T11:55:39.117Z,7.43
2023-03-27T11:56:39.125Z,7.44
2023-03-27T11:57:39.105Z,7.32
2023-03-27T11:58:39.102Z,7.08
2023-03-27T11:59:39.085Z,6.74
2023-03-27T12:00:39.132Z,6.44
2023-03-27T12:01:39.088Z,6.13
2023-03-27T12:02:39.114Z,6.05
2023-03-27T12:03:39.159Z,5.97
2023-03-27T12:04:39.010Z,5.88
2023-03-27T12:05:39.004Z,5.84
2023-03-27T12:06:38.978Z,5.80
2023-03-27T12:07:40.583Z,5.80
2023-03-27T12:08:39.998Z,5.83
2023-03-27T12:09:38.943Z,5.94
2023-03-27T12:10:38.945Z,6.13
2023-03-27T12:11:38.927Z,6.32
2023-03-27T12:12:38.898Z,6.67
2023-03-27T12:13:41.818Z,6.93
2023-03-27T12:14:41.057Z,7.55
2023-03-27T12:15:38.864Z,8.01
2023-03-27T12:16:38.896Z,8.21
2023-03-27T12:17:38.900Z,8.05
2023-03-27T12:18:41.341Z,8.31
2023-03-27T12:19:39.806Z,8.61
2023-03-27T12:20:48.675Z,8.89
2023-03-27T12:21:39.785Z,9.19
2023-03-27T12:22:38.794Z,9.33
2023-03-27T12:23:38.808Z,9.42
2023-03-27T12:24:40.609Z,9.36
2023-03-27T12:25:39.734Z,8.92
2023-03-27T12:26:38.756Z,8.69
2023-03-27T12:27:38.704Z,8.44
2023-03-27T12:28:40.127Z,8.18
2023-03-27T12:29:38.685Z,7.84
2023-03-27T12:30:38.676Z,7.43
2023-03-27T12:31:38.705Z,7.22
2023-03-27T12:32:38.678Z,7.08
2023-03-27T12:33:38.655Z,7.05
2023-03-27T12:34:38.630Z,7.11
2023-03-27T12:35:38.625Z,7.19
2023-03-27T12:36:38.631Z,7.15
2023-03-27T12:37:38.621Z,7.23
2023-03-27T12:38:38.596Z,7.18
2023-03-27T12:39:38.558Z,7.19
2023-03-27T12:40:38.536Z,7.05
2023-03-27T12:41:38.529Z,6.97
2023-03-27T12:42:43.900Z,6.85
2023-03-27T12:43:39.560Z,6.64
2023-03-27T12:44:38.476Z,6.10
2023-03-27T12:45:44.253Z,5.77
2023-03-27T12:46:39.485Z,5.55
2023-03-27T12:47:38.481Z,5.46
2023-03-27T12:48:38.453Z,5.38
2023-03-27T12:49:46.840Z,5.34
2023-03-27T12:50:39.399Z,5.28
2023-03-27T12:51:38.385Z,5.26
2023-03-27T12:52:38.398Z,5.29
2023-03-27T12:53:38.393Z,5.56
2023-03-27T12:54:38.362Z,5.87
2023-03-27T12:55:38.305Z,6.22
2023-03-27T12:56:38.403Z,6.57
2023-03-27T12:57:38.392Z,6.87
2023-03-27T12:58:38.488Z,7.11
2023-03-27T12:59:38.296Z,7.31
2023-03-27T13:00:38.270Z,7.37
2023-03-27T13:01:45.513Z,7.37
2023-03-27T13:02:39.568Z,7.47
2023-03-27T13:03:38.348Z,7.62
2023-03-27T13:04:38.235Z,7.66
2023-03-27T13:05:38.200Z,7.80
2023-03-27T13:06:38.202Z,7.85
2023-03-27T13:07:38.171Z,7.88
2023-03-27T13:08:38.168Z,7.75
2023-03-27T13:09:38.176Z,7.74
2023-03-27T13:10:38.153Z,7.69
2023-03-27T13:11:38.120Z,7.70
2023-03-27T13:12:38.114Z,7.78
2023-03-27T13:13:38.102Z,7.99
2023-03-27T13:14:38.120Z,8.18
2023-03-27T13:15:38.116Z,8.35
2023-03-27T13:16:38.069Z,8.52
2023-03-27T13:17:38.065Z,8.63
2023-03-27T13:18:38.032Z,8.89
2023-03-27T13:19:38.033Z,8.95